Αρχική σελίδα
METAR-TAF:

METAR-TAF

Αεροδρόμια :

Καράτσι, Πακιστάν

γεωγραφικό πλάτος: 24-54N, γεωγραφικό μήκος: 067-08E, υψόμετρο: 21 μ

Παρών καιρός

Η αναφορά έγινε 38 λεπτά πριν, στις 00:25 UTC
Ήπιος άνεμος
Θερμοκρασία 13°C
Υγρασία 88%
Πίεση 1013 hPa
Ορατότητα: 2500 μ
Αχλής

METAR: OPKC 220025Z 00000KT 2500 BR NSC 13/11 Q1013 NOSIG

Χρόνος: 06:03 (01:03 UTC)

Πρόγνωση Καιρού

Η αναφορά έγινε 3 ώρες και 33 λεπτά πριν, στις 21:30 UTC
Η πρόγνωση ισχύει από τις 22 στις 00 UTC έως τις 22 στις 09 UTC
Άνεμος 10 kt από Δ
Ορατότητα: 6000 μ
Προσωρινά
από 22 στις 01 UTC έως τις 22 στις 05 UTC
Άνεμος 5 kt από Β/BA
Ορατότητα: 1500 μ
Αχλής

TAF: OPKC 212130Z 2200/2209 27010KT 6000 NSC TEMPO 2201/2205 03005KT 1500 BR NSC

Μετεωρολογικές αναφορές και προγνώσεις για περισσότερα από 4000 αεροδρόμια (δελτία METAR και TAF).

Οι διαθέσιμοι σταθμοί απεικονίζονται στο χάρτη με κίτρινες και κόκκινες κουκκίδες.

Μετακινήστε το ποντίκι πάνω από τις κουκκίδες για να δείτε το όνομα του σταθμού.

Στη συνέχεια, κάντε κλικ για να δείτε τις μετεωρολογικές αναφορές και τις προγνώσεις καιρού.

Για να αλλάξετε το χάρτη: κάντε κλικ στα πράσινα κουμπιά με τον μαύρο σταυρό για να ζουμάρετε, στο πράσινο κουμπί με την παύλα για να αφαιρέσετε το ζουμ ή στα πράσινα βέλη για να αντιπαραβάλλετε χάρτες.


METAR-TAF: